Langley, Washington
Current Conditions -  °F | °C
As of 10:31 PM on Monday 20 Oct 2014 (Local Time) from KPAE Reporting Station
Light Rain Light Rain  
Wind Chill: 55°   Ceiling: 3600
Heat Index: 55°   Visibility: 10mi
Dew Point: 51°   Wind: 18mph
Humidity: 86%   Direction: 180°S
Pressure: 29.8"   Gusts: NA
Location:  48.04°N, 122.41°W
Report Text: KPAE 210531Z AUTO 18016KT 10SM -RA FEW016 SCT029 BKN036 13/11 A2980 RMK AO2 RAB06 P0000 T01280106
Loading
Personal Weather Stations






























Interactive Weather Map
Tropical Storm Tracking
New forecast layout! Learn more

10-Day Weather Forecast

Advertisements
Track Severe Weather on mobile